sensor_id;sensor_type;location;lat;lon;timestamp;P1;durP1;ratioP1;P2;durP2;ratioP2
24585;SDS011;12743;52.262;6.172;2023-04-02T00:05:22;18.88;;;9.45;;
24585;SDS011;12743;52.262;6.172;2023-04-02T00:07:57;14.20;;;8.93;;
24585;SDS011;12743;52.262;6.172;2023-04-02T00:10:33;14.13;;;8.50;;
24585;SDS011;12743;52.262;6.172;2023-04-02T00:13:17;14.95;;;8.32;;
24585;SDS011;12743;52.262;6.172;2023-04-02T00:15:49;14.07;;;8.80;;
24585;SDS011;12743;52.262;6.172;2023-04-02T00:18:22;15.23;;;8.85;;
24585;SDS011;12743;52.262;6.172;2023-04-02T00:23:29;15.63;;;9.00;;
24585;SDS011;12743;52.262;6.172;2023-04-02T00:25:56;14.68;;;8.30;;
24585;SDS011;12743;52.262;6.172;2023-04-02T00:28:22;15.57;;;8.98;;
24585;SDS011;12743;52.262;6.172;2023-04-02T00:30:53;16.38;;;8.82;;
24585;SDS011;12743;52.262;6.172;2023-04-02T00:33:24;14.98;;;8.73;;
24585;SDS011;12743;52.262;6.172;2023-04-02T00:35:53;14.30;;;8.20;;
24585;SDS011;12743;52.262;6.172;2023-04-02T00:38:30;14.30;;;7.65;;
24585;SDS011;12743;52.262;6.172;2023-04-02T00:41:00;14.25;;;8.23;;
24585;SDS011;12743;52.262;6.172;2023-04-02T00:43:30;16.15;;;8.93;;
24585;SDS011;12743;52.262;6.172;2023-04-02T00:45:59;15.07;;;8.93;;
24585;SDS011;12743;52.262;6.172;2023-04-02T00:48:43;14.33;;;8.63;;
24585;SDS011;12743;52.262;6.172;2023-04-02T00:51:21;15.15;;;8.55;;
24585;SDS011;12743;52.262;6.172;2023-04-02T00:53:51;16.23;;;9.07;;
24585;SDS011;12743;52.262;6.172;2023-04-02T00:56:41;13.93;;;8.05;;
24585;SDS011;12743;52.262;6.172;2023-04-02T01:04:58;16.70;;;8.50;;
24585;SDS011;12743;52.262;6.172;2023-04-02T01:13:56;14.52;;;8.32;;
24585;SDS011;12743;52.262;6.172;2023-04-02T01:24:32;11.82;;;7.72;;
24585;SDS011;12743;52.262;6.172;2023-04-02T01:27:00;12.70;;;7.60;;
24585;SDS011;12743;52.262;6.172;2023-04-02T01:29:29;17.57;;;7.87;;
24585;SDS011;12743;52.262;6.172;2023-04-02T01:31:57;15.23;;;7.85;;
24585;SDS011;12743;52.262;6.172;2023-04-02T01:34:27;22.25;;;7.32;;
24585;SDS011;12743;52.262;6.172;2023-04-02T01:39:55;15.15;;;7.57;;
24585;SDS011;12743;52.262;6.172;2023-04-02T01:42:44;14.17;;;8.70;;
24585;SDS011;12743;52.262;6.172;2023-04-02T01:45:21;16.63;;;8.48;;
24585;SDS011;12743;52.262;6.172;2023-04-02T01:47:48;14.95;;;8.32;;
24585;SDS011;12743;52.262;6.172;2023-04-02T01:53:15;14.85;;;9.48;;
24585;SDS011;12743;52.262;6.172;2023-04-02T01:55:49;14.40;;;8.87;;
24585;SDS011;12743;52.262;6.172;2023-04-02T01:58:19;14.68;;;8.68;;
24585;SDS011;12743;52.262;6.172;2023-04-02T02:03:35;14.70;;;8.52;;
24585;SDS011;12743;52.262;6.172;2023-04-02T02:06:03;14.43;;;8.48;;
24585;SDS011;12743;52.262;6.172;2023-04-02T02:08:36;18.00;;;8.60;;
24585;SDS011;12743;52.262;6.172;2023-04-02T02:11:19;14.55;;;8.07;;
24585;SDS011;12743;52.262;6.172;2023-04-02T02:13:54;13.82;;;7.32;;
24585;SDS011;12743;52.262;6.172;2023-04-02T02:16:23;19.15;;;8.98;;
24585;SDS011;12743;52.262;6.172;2023-04-02T02:18:55;13.73;;;7.93;;
24585;SDS011;12743;52.262;6.172;2023-04-02T02:24:17;14.20;;;8.57;;
24585;SDS011;12743;52.262;6.172;2023-04-02T02:26:47;17.10;;;9.35;;
24585;SDS011;12743;52.262;6.172;2023-04-02T02:29:17;14.57;;;8.32;;
24585;SDS011;12743;52.262;6.172;2023-04-02T02:31:45;16.00;;;8.55;;
24585;SDS011;12743;52.262;6.172;2023-04-02T02:34:19;16.20;;;9.00;;
24585;SDS011;12743;52.262;6.172;2023-04-02T02:36:55;17.80;;;8.63;;
24585;SDS011;12743;52.262;6.172;2023-04-02T02:42:25;13.18;;;7.38;;
24585;SDS011;12743;52.262;6.172;2023-04-02T02:44:57;13.18;;;7.53;;
24585;SDS011;12743;52.262;6.172;2023-04-02T02:47:27;13.53;;;7.63;;
24585;SDS011;12743;52.262;6.172;2023-04-02T02:50:00;16.05;;;7.65;;
24585;SDS011;12743;52.262;6.172;2023-04-02T02:52:35;14.27;;;7.97;;
24585;SDS011;12743;52.262;6.172;2023-04-02T02:55:09;15.00;;;7.30;;
24585;SDS011;12743;52.262;6.172;2023-04-02T02:57:55;14.68;;;7.30;;
24585;SDS011;12743;52.262;6.172;2023-04-02T03:00:29;13.47;;;6.70;;
24585;SDS011;12743;52.262;6.172;2023-04-02T03:02:58;14.02;;;5.85;;
24585;SDS011;12743;52.262;6.172;2023-04-02T03:05:29;18.30;;;6.70;;
24585;SDS011;12743;52.262;6.172;2023-04-02T03:08:03;13.00;;;6.20;;
24585;SDS011;12743;52.262;6.172;2023-04-02T03:10:37;11.60;;;5.80;;
24585;SDS011;12743;52.262;6.172;2023-04-02T03:13:29;12.33;;;6.17;;
24585;SDS011;12743;52.262;6.172;2023-04-02T03:16:09;10.77;;;5.45;;
24585;SDS011;12743;52.262;6.172;2023-04-02T03:19:01;11.52;;;5.32;;
24585;SDS011;12743;52.262;6.172;2023-04-02T03:27:19;10.57;;;4.97;;
24585;SDS011;12743;52.262;6.172;2023-04-02T03:29:57;11.68;;;5.00;;
24585;SDS011;12743;52.262;6.172;2023-04-02T03:32:36;9.38;;;4.50;;
24585;SDS011;12743;52.262;6.172;2023-04-02T03:37:43;9.50;;;4.30;;
24585;SDS011;12743;52.262;6.172;2023-04-02T03:40:16;8.63;;;4.10;;
24585;SDS011;12743;52.262;6.172;2023-04-02T03:42:48;8.10;;;4.10;;
24585;SDS011;12743;52.262;6.172;2023-04-02T03:45:21;9.55;;;4.32;;
24585;SDS011;12743;52.262;6.172;2023-04-02T03:47:57;9.70;;;4.30;;
24585;SDS011;12743;52.262;6.172;2023-04-02T03:50:34;11.07;;;4.78;;
24585;SDS011;12743;52.262;6.172;2023-04-02T03:53:12;8.03;;;3.50;;
24585;SDS011;12743;52.262;6.172;2023-04-02T03:55:39;6.75;;;3.42;;
24585;SDS011;12743;52.262;6.172;2023-04-02T03:58:17;8.82;;;3.20;;
24585;SDS011;12743;52.262;6.172;2023-04-02T04:03:44;7.57;;;2.60;;
24585;SDS011;12743;52.262;6.172;2023-04-02T04:11:35;6.13;;;1.48;;
24585;SDS011;12743;52.262;6.172;2023-04-02T04:14:11;5.32;;;1.92;;
24585;SDS011;12743;52.262;6.172;2023-04-02T04:16:45;8.57;;;2.17;;
24585;SDS011;12743;52.262;6.172;2023-04-02T04:19:24;7.37;;;1.33;;
24585;SDS011;12743;52.262;6.172;2023-04-02T04:22:13;6.85;;;1.60;;
24585;SDS011;12743;52.262;6.172;2023-04-02T04:24:40;6.32;;;1.80;;
24585;SDS011;12743;52.262;6.172;2023-04-02T04:30:24;5.53;;;1.85;;
24585;SDS011;12743;52.262;6.172;2023-04-02T04:33:03;6.80;;;2.20;;
24585;SDS011;12743;52.262;6.172;2023-04-02T04:35:36;4.85;;;1.80;;
24585;SDS011;12743;52.262;6.172;2023-04-02T04:38:12;5.43;;;1.33;;
24585;SDS011;12743;52.262;6.172;2023-04-02T04:41:15;6.88;;;1.27;;
24585;SDS011;12743;52.262;6.172;2023-04-02T04:43:48;4.55;;;1.25;;
24585;SDS011;12743;52.262;6.172;2023-04-02T04:46:18;6.40;;;1.30;;
24585;SDS011;12743;52.262;6.172;2023-04-02T04:48:53;4.68;;;1.02;;
24585;SDS011;12743;52.262;6.172;2023-04-02T04:51:34;6.15;;;1.23;;
24585;SDS011;12743;52.262;6.172;2023-04-02T04:54:08;5.07;;;1.33;;
24585;SDS011;12743;52.262;6.172;2023-04-02T04:56:39;6.53;;;1.15;;
24585;SDS011;12743;52.262;6.172;2023-04-02T05:04:47;6.75;;;1.20;;
24585;SDS011;12743;52.262;6.172;2023-04-02T05:07:19;4.10;;;1.10;;
24585;SDS011;12743;52.262;6.172;2023-04-02T05:09:57;4.20;;;1.45;;
24585;SDS011;12743;52.262;6.172;2023-04-02T05:18:18;5.10;;;1.10;;
24585;SDS011;12743;52.262;6.172;2023-04-02T05:20:52;5.93;;;1.30;;
24585;SDS011;12743;52.262;6.172;2023-04-02T05:23:30;9.35;;;1.77;;
24585;SDS011;12743;52.262;6.172;2023-04-02T05:28:56;6.22;;;1.10;;
24585;SDS011;12743;52.262;6.172;2023-04-02T05:31:36;6.93;;;1.25;;
24585;SDS011;12743;52.262;6.172;2023-04-02T05:34:07;4.30;;;1.17;;
24585;SDS011;12743;52.262;6.172;2023-04-02T05:36:36;7.22;;;1.55;;
24585;SDS011;12743;52.262;6.172;2023-04-02T05:39:07;6.37;;;1.43;;
24585;SDS011;12743;52.262;6.172;2023-04-02T05:41:44;6.63;;;1.50;;
24585;SDS011;12743;52.262;6.172;2023-04-02T05:44:31;9.43;;;1.98;;
24585;SDS011;12743;52.262;6.172;2023-04-02T05:47:19;4.75;;;1.10;;
24585;SDS011;12743;52.262;6.172;2023-04-02T05:49:53;6.70;;;2.05;;
24585;SDS011;12743;52.262;6.172;2023-04-02T05:52:48;3.77;;;1.40;;
24585;SDS011;12743;52.262;6.172;2023-04-02T05:55:28;5.82;;;1.63;;
24585;SDS011;12743;52.262;6.172;2023-04-02T05:58:01;5.13;;;1.70;;
24585;SDS011;12743;52.262;6.172;2023-04-02T06:00:59;7.30;;;1.90;;
24585;SDS011;12743;52.262;6.172;2023-04-02T06:03:33;6.55;;;1.75;;
24585;SDS011;12743;52.262;6.172;2023-04-02T06:09:16;5.63;;;1.88;;
24585;SDS011;12743;52.262;6.172;2023-04-02T06:11:51;6.97;;;1.60;;
24585;SDS011;12743;52.262;6.172;2023-04-02T06:14:25;6.95;;;1.48;;
24585;SDS011;12743;52.262;6.172;2023-04-02T06:16:53;5.55;;;1.55;;
24585;SDS011;12743;52.262;6.172;2023-04-02T06:19:21;5.27;;;1.60;;
24585;SDS011;12743;52.262;6.172;2023-04-02T06:21:57;6.97;;;1.70;;
24585;SDS011;12743;52.262;6.172;2023-04-02T06:24:25;5.15;;;1.67;;
24585;SDS011;12743;52.262;6.172;2023-04-02T06:26:56;5.90;;;1.40;;
24585;SDS011;12743;52.262;6.172;2023-04-02T06:29:37;7.25;;;1.70;;
24585;SDS011;12743;52.262;6.172;2023-04-02T06:32:12;4.67;;;1.23;;
24585;SDS011;12743;52.262;6.172;2023-04-02T06:34:42;4.95;;;1.58;;
24585;SDS011;12743;52.262;6.172;2023-04-02T06:37:14;7.40;;;1.80;;
24585;SDS011;12743;52.262;6.172;2023-04-02T06:39:48;5.70;;;1.73;;
24585;SDS011;12743;52.262;6.172;2023-04-02T06:42:18;6.25;;;1.83;;
24585;SDS011;12743;52.262;6.172;2023-04-02T06:45:17;7.23;;;1.70;;
24585;SDS011;12743;52.262;6.172;2023-04-02T06:48:26;5.85;;;2.22;;
24585;SDS011;12743;52.262;6.172;2023-04-02T06:51:04;5.20;;;1.50;;
24585;SDS011;12743;52.262;6.172;2023-04-02T06:59:01;6.37;;;1.60;;
24585;SDS011;12743;52.262;6.172;2023-04-02T07:01:31;6.70;;;1.10;;
24585;SDS011;12743;52.262;6.172;2023-04-02T07:04:01;5.25;;;1.42;;
24585;SDS011;12743;52.262;6.172;2023-04-02T07:06:34;3.83;;;1.15;;
24585;SDS011;12743;52.262;6.172;2023-04-02T07:09:02;5.40;;;1.50;;
24585;SDS011;12743;52.262;6.172;2023-04-02T07:11:29;9.03;;;1.93;;
24585;SDS011;12743;52.262;6.172;2023-04-02T07:13:59;3.72;;;1.50;;
24585;SDS011;12743;52.262;6.172;2023-04-02T07:16:26;5.53;;;1.80;;
24585;SDS011;12743;52.262;6.172;2023-04-02T07:18:54;5.43;;;1.55;;
24585;SDS011;12743;52.262;6.172;2023-04-02T07:21:22;4.05;;;1.40;;
24585;SDS011;12743;52.262;6.172;2023-04-02T07:23:50;6.50;;;1.30;;
24585;SDS011;12743;52.262;6.172;2023-04-02T07:26:17;8.20;;;1.75;;
24585;SDS011;12743;52.262;6.172;2023-04-02T07:28:47;5.03;;;1.50;;
24585;SDS011;12743;52.262;6.172;2023-04-02T07:31:19;4.68;;;1.55;;
24585;SDS011;12743;52.262;6.172;2023-04-02T07:33:47;6.68;;;1.42;;
24585;SDS011;12743;52.262;6.172;2023-04-02T07:36:18;4.97;;;1.33;;
24585;SDS011;12743;52.262;6.172;2023-04-02T07:38:47;4.72;;;1.20;;
24585;SDS011;12743;52.262;6.172;2023-04-02T07:41:14;4.82;;;1.48;;
24585;SDS011;12743;52.262;6.172;2023-04-02T07:43:42;5.75;;;1.30;;
24585;SDS011;12743;52.262;6.172;2023-04-02T07:46:09;5.22;;;1.10;;
24585;SDS011;12743;52.262;6.172;2023-04-02T07:48:36;5.50;;;1.30;;
24585;SDS011;12743;52.262;6.172;2023-04-02T07:51:03;7.22;;;1.50;;
24585;SDS011;12743;52.262;6.172;2023-04-02T07:53:31;3.53;;;1.02;;
24585;SDS011;12743;52.262;6.172;2023-04-02T07:56:04;4.07;;;0.90;;
24585;SDS011;12743;52.262;6.172;2023-04-02T07:58:32;5.70;;;1.30;;
24585;SDS011;12743;52.262;6.172;2023-04-02T08:00:59;5.07;;;1.50;;
24585;SDS011;12743;52.262;6.172;2023-04-02T08:03:26;6.18;;;1.25;;
24585;SDS011;12743;52.262;6.172;2023-04-02T08:05:55;6.35;;;1.60;;
24585;SDS011;12743;52.262;6.172;2023-04-02T08:08:23;5.13;;;1.25;;
24585;SDS011;12743;52.262;6.172;2023-04-02T08:10:50;5.53;;;1.48;;
24585;SDS011;12743;52.262;6.172;2023-04-02T08:13:17;5.50;;;1.37;;
24585;SDS011;12743;52.262;6.172;2023-04-02T08:15:44;4.93;;;1.00;;
24585;SDS011;12743;52.262;6.172;2023-04-02T08:18:11;5.90;;;1.05;;
24585;SDS011;12743;52.262;6.172;2023-04-02T08:20:37;4.82;;;0.85;;
24585;SDS011;12743;52.262;6.172;2023-04-02T08:23:04;6.85;;;1.20;;
24585;SDS011;12743;52.262;6.172;2023-04-02T08:25:40;5.90;;;0.90;;
24585;SDS011;12743;52.262;6.172;2023-04-02T08:28:07;6.15;;;1.10;;
24585;SDS011;12743;52.262;6.172;2023-04-02T08:30:34;5.63;;;0.90;;
24585;SDS011;12743;52.262;6.172;2023-04-02T08:33:02;3.13;;;0.52;;
24585;SDS011;12743;52.262;6.172;2023-04-02T08:35:29;3.28;;;0.50;;
24585;SDS011;12743;52.262;6.172;2023-04-02T08:37:55;5.43;;;0.80;;
24585;SDS011;12743;52.262;6.172;2023-04-02T08:40:31;4.75;;;0.82;;
24585;SDS011;12743;52.262;6.172;2023-04-02T08:48:31;7.13;;;0.73;;
24585;SDS011;12743;52.262;6.172;2023-04-02T08:51:00;4.37;;;0.40;;
24585;SDS011;12743;52.262;6.172;2023-04-02T08:53:28;5.00;;;0.80;;
24585;SDS011;12743;52.262;6.172;2023-04-02T08:56:07;3.35;;;0.70;;
24585;SDS011;12743;52.262;6.172;2023-04-02T08:58:43;5.38;;;0.98;;
24585;SDS011;12743;52.262;6.172;2023-04-02T09:03:58;5.30;;;0.80;;
24585;SDS011;12743;52.262;6.172;2023-04-02T09:06:24;2.95;;;0.75;;
24585;SDS011;12743;52.262;6.172;2023-04-02T09:08:53;5.75;;;0.60;;
24585;SDS011;12743;52.262;6.172;2023-04-02T09:11:26;6.10;;;0.98;;
24585;SDS011;12743;52.262;6.172;2023-04-02T09:14:02;2.88;;;0.70;;
24585;SDS011;12743;52.262;6.172;2023-04-02T09:16:40;6.73;;;1.00;;
24585;SDS011;12743;52.262;6.172;2023-04-02T09:19:13;3.80;;;0.90;;
24585;SDS011;12743;52.262;6.172;2023-04-02T09:21:47;4.57;;;1.13;;
24585;SDS011;12743;52.262;6.172;2023-04-02T09:24:30;4.72;;;1.17;;
24585;SDS011;12743;52.262;6.172;2023-04-02T09:26:57;7.55;;;1.40;;
24585;SDS011;12743;52.262;6.172;2023-04-02T09:29:58;7.07;;;1.40;;
24585;SDS011;12743;52.262;6.172;2023-04-02T09:43:23;5.30;;;1.27;;
24585;SDS011;12743;52.262;6.172;2023-04-02T09:45:55;4.65;;;0.77;;
24585;SDS011;12743;52.262;6.172;2023-04-02T09:48:28;5.82;;;1.08;;
24585;SDS011;12743;52.262;6.172;2023-04-02T09:51:14;5.63;;;0.95;;
24585;SDS011;12743;52.262;6.172;2023-04-02T09:53:44;5.38;;;0.90;;
24585;SDS011;12743;52.262;6.172;2023-04-02T09:56:19;5.20;;;0.80;;
24585;SDS011;12743;52.262;6.172;2023-04-02T09:59:12;3.75;;;0.80;;
24585;SDS011;12743;52.262;6.172;2023-04-02T10:01:44;4.35;;;0.77;;
24585;SDS011;12743;52.262;6.172;2023-04-02T10:10:11;5.07;;;0.70;;
24585;SDS011;12743;52.262;6.172;2023-04-02T10:12:48;5.03;;;0.52;;
24585;SDS011;12743;52.262;6.172;2023-04-02T10:15:24;3.30;;;0.50;;
24585;SDS011;12743;52.262;6.172;2023-04-02T10:18:43;3.63;;;0.57;;
24585;SDS011;12743;52.262;6.172;2023-04-02T10:20:54;3.60;;;0.50;;
24585;SDS011;12743;52.262;6.172;2023-04-02T10:23:23;6.23;;;0.80;;
24585;SDS011;12743;52.262;6.172;2023-04-02T10:31:39;4.78;;;0.60;;
24585;SDS011;12743;52.262;6.172;2023-04-02T10:34:50;5.10;;;0.70;;
24585;SDS011;12743;52.262;6.172;2023-04-02T10:37:25;3.33;;;0.60;;
24585;SDS011;12743;52.262;6.172;2023-04-02T10:40:00;3.13;;;0.55;;
24585;SDS011;12743;52.262;6.172;2023-04-02T10:42:41;4.75;;;0.57;;
24585;SDS011;12743;52.262;6.172;2023-04-02T10:48:46;4.95;;;0.70;;
24585;SDS011;12743;52.262;6.172;2023-04-02T10:51:24;6.83;;;0.67;;
24585;SDS011;12743;52.262;6.172;2023-04-02T10:53:56;5.10;;;0.60;;
24585;SDS011;12743;52.262;6.172;2023-04-02T10:56:26;3.17;;;0.50;;
24585;SDS011;12743;52.262;6.172;2023-04-02T10:59:16;4.00;;;0.40;;
24585;SDS011;12743;52.262;6.172;2023-04-02T11:01:43;4.15;;;0.63;;
24585;SDS011;12743;52.262;6.172;2023-04-02T11:04:23;2.93;;;0.40;;
24585;SDS011;12743;52.262;6.172;2023-04-02T11:07:00;7.13;;;0.75;;
24585;SDS011;12743;52.262;6.172;2023-04-02T11:09:40;2.15;;;0.30;;
24585;SDS011;12743;52.262;6.172;2023-04-02T11:12:26;3.95;;;0.75;;
24585;SDS011;12743;52.262;6.172;2023-04-02T11:14:55;4.35;;;0.60;;
24585;SDS011;12743;52.262;6.172;2023-04-02T11:17:22;4.37;;;0.73;;
24585;SDS011;12743;52.262;6.172;2023-04-02T11:19:49;3.03;;;0.50;;
24585;SDS011;12743;52.262;6.172;2023-04-02T11:22:17;5.10;;;0.60;;
24585;SDS011;12743;52.262;6.172;2023-04-02T11:24:46;1.75;;;0.40;;
24585;SDS011;12743;52.262;6.172;2023-04-02T11:27:33;3.30;;;0.40;;
24585;SDS011;12743;52.262;6.172;2023-04-02T11:30:03;3.60;;;0.50;;
24585;SDS011;12743;52.262;6.172;2023-04-02T11:32:42;3.85;;;0.50;;
24585;SDS011;12743;52.262;6.172;2023-04-02T11:38:02;6.70;;;0.75;;
24585;SDS011;12743;52.262;6.172;2023-04-02T11:48:42;5.60;;;0.68;;
24585;SDS011;12743;52.262;6.172;2023-04-02T11:51:54;3.97;;;0.50;;
24585;SDS011;12743;52.262;6.172;2023-04-02T11:53:58;2.85;;;0.60;;
24585;SDS011;12743;52.262;6.172;2023-04-02T11:56:34;3.97;;;0.60;;
24585;SDS011;12743;52.262;6.172;2023-04-02T11:59:14;5.78;;;0.70;;
24585;SDS011;12743;52.262;6.172;2023-04-02T12:10:31;4.00;;;0.93;;
24585;SDS011;12743;52.262;6.172;2023-04-02T12:13:02;2.58;;;0.55;;
24585;SDS011;12743;52.262;6.172;2023-04-02T12:15:42;2.30;;;0.60;;
24585;SDS011;12743;52.262;6.172;2023-04-02T12:18:18;4.47;;;0.85;;
24585;SDS011;12743;52.262;6.172;2023-04-02T12:20:48;3.58;;;0.60;;
24585;SDS011;12743;52.262;6.172;2023-04-02T12:23:22;4.27;;;0.63;;
24585;SDS011;12743;52.262;6.172;2023-04-02T12:26:01;5.28;;;0.60;;
24585;SDS011;12743;52.262;6.172;2023-04-02T12:28:31;4.43;;;0.70;;
24585;SDS011;12743;52.262;6.172;2023-04-02T12:31:13;5.10;;;0.50;;
24585;SDS011;12743;52.262;6.172;2023-04-02T12:33:43;4.50;;;0.50;;
24585;SDS011;12743;52.262;6.172;2023-04-02T12:38:43;4.03;;;0.50;;
24585;SDS011;12743;52.262;6.172;2023-04-02T12:41:22;2.20;;;0.50;;
24585;SDS011;12743;52.262;6.172;2023-04-02T12:44:00;5.95;;;0.98;;
24585;SDS011;12743;52.262;6.172;2023-04-02T12:46:28;4.13;;;0.60;;
24585;SDS011;12743;52.262;6.172;2023-04-02T12:49:06;4.60;;;0.70;;
24585;SDS011;12743;52.262;6.172;2023-04-02T12:51:37;3.25;;;0.82;;
24585;SDS011;12743;52.262;6.172;2023-04-02T12:54:04;5.00;;;0.93;;
24585;SDS011;12743;52.262;6.172;2023-04-02T12:56:31;4.45;;;0.50;;
24585;SDS011;12743;52.262;6.172;2023-04-02T12:58:58;4.40;;;0.80;;
24585;SDS011;12743;52.262;6.172;2023-04-02T13:01:30;4.30;;;0.90;;
24585;SDS011;12743;52.262;6.172;2023-04-02T13:04:07;2.38;;;0.60;;
24585;SDS011;12743;52.262;6.172;2023-04-02T13:06:40;3.22;;;0.52;;
24585;SDS011;12743;52.262;6.172;2023-04-02T13:09:25;6.20;;;0.73;;
24585;SDS011;12743;52.262;6.172;2023-04-02T13:12:21;2.42;;;0.52;;
24585;SDS011;12743;52.262;6.172;2023-04-02T13:15:00;2.77;;;0.60;;
24585;SDS011;12743;52.262;6.172;2023-04-02T13:17:35;5.53;;;0.77;;
24585;SDS011;12743;52.262;6.172;2023-04-02T13:26:00;3.70;;;0.70;;
24585;SDS011;12743;52.262;6.172;2023-04-02T13:28:37;4.53;;;0.70;;
24585;SDS011;12743;52.262;6.172;2023-04-02T13:31:04;2.97;;;0.60;;
24585;SDS011;12743;52.262;6.172;2023-04-02T13:33:31;4.80;;;0.60;;
24585;SDS011;12743;52.262;6.172;2023-04-02T13:35:57;4.00;;;0.80;;
24585;SDS011;12743;52.262;6.172;2023-04-02T13:38:24;4.18;;;0.80;;
24585;SDS011;12743;52.262;6.172;2023-04-02T13:40:51;3.53;;;0.80;;
24585;SDS011;12743;52.262;6.172;2023-04-02T13:43:18;3.55;;;0.70;;
24585;SDS011;12743;52.262;6.172;2023-04-02T13:45:49;3.03;;;0.80;;
24585;SDS011;12743;52.262;6.172;2023-04-02T13:48:18;4.57;;;0.90;;
24585;SDS011;12743;52.262;6.172;2023-04-02T13:50:44;2.70;;;0.60;;
24585;SDS011;12743;52.262;6.172;2023-04-02T13:53:14;4.20;;;0.67;;
24585;SDS011;12743;52.262;6.172;2023-04-02T13:55:54;3.95;;;0.73;;
24585;SDS011;12743;52.262;6.172;2023-04-02T13:58:21;1.25;;;0.38;;
24585;SDS011;12743;52.262;6.172;2023-04-02T14:00:48;3.60;;;0.57;;
24585;SDS011;12743;52.262;6.172;2023-04-02T14:03:17;3.47;;;0.70;;
24585;SDS011;12743;52.262;6.172;2023-04-02T14:19:53;4.03;;;0.60;;
24585;SDS011;12743;52.262;6.172;2023-04-02T14:26:23;4.47;;;0.75;;
24585;SDS011;12743;52.262;6.172;2023-04-02T14:28:50;2.90;;;0.55;;
24585;SDS011;12743;52.262;6.172;2023-04-02T14:37:15;3.33;;;0.80;;
24585;SDS011;12743;52.262;6.172;2023-04-02T14:39:58;3.10;;;0.70;;
24585;SDS011;12743;52.262;6.172;2023-04-02T14:46:03;2.55;;;0.85;;
24585;SDS011;12743;52.262;6.172;2023-04-02T14:48:47;4.43;;;0.67;;
24585;SDS011;12743;52.262;6.172;2023-04-02T14:51:28;5.28;;;1.15;;
24585;SDS011;12743;52.262;6.172;2023-04-02T14:54:04;4.78;;;0.90;;
24585;SDS011;12743;52.262;6.172;2023-04-02T14:56:44;6.15;;;0.75;;
24585;SDS011;12743;52.262;6.172;2023-04-02T14:59:22;3.35;;;0.93;;
24585;SDS011;12743;52.262;6.172;2023-04-02T15:02:01;5.57;;;0.70;;
24585;SDS011;12743;52.262;6.172;2023-04-02T15:04:37;3.40;;;0.65;;
24585;SDS011;12743;52.262;6.172;2023-04-02T15:07:18;2.65;;;0.70;;
24585;SDS011;12743;52.262;6.172;2023-04-02T15:09:56;4.78;;;0.70;;
24585;SDS011;12743;52.262;6.172;2023-04-02T15:12:42;3.40;;;0.63;;
24585;SDS011;12743;52.262;6.172;2023-04-02T15:15:18;3.87;;;0.70;;
24585;SDS011;12743;52.262;6.172;2023-04-02T15:18:02;3.58;;;0.65;;
24585;SDS011;12743;52.262;6.172;2023-04-02T15:20:35;3.65;;;0.70;;
24585;SDS011;12743;52.262;6.172;2023-04-02T15:23:29;3.78;;;0.63;;
24585;SDS011;12743;52.262;6.172;2023-04-02T15:31:53;4.28;;;1.15;;
24585;SDS011;12743;52.262;6.172;2023-04-02T15:39:57;5.03;;;0.60;;
24585;SDS011;12743;52.262;6.172;2023-04-02T15:43:30;4.70;;;0.60;;
24585;SDS011;12743;52.262;6.172;2023-04-02T15:53:47;4.65;;;0.68;;
24585;SDS011;12743;52.262;6.172;2023-04-02T15:56:35;3.20;;;0.60;;
24585;SDS011;12743;52.262;6.172;2023-04-02T16:01:53;4.13;;;0.90;;
24585;SDS011;12743;52.262;6.172;2023-04-02T16:05:00;3.17;;;0.85;;
24585;SDS011;12743;52.262;6.172;2023-04-02T16:10:38;3.03;;;0.97;;
24585;SDS011;12743;52.262;6.172;2023-04-02T16:13:51;4.68;;;0.77;;
24585;SDS011;12743;52.262;6.172;2023-04-02T16:21:33;4.32;;;0.90;;
24585;SDS011;12743;52.262;6.172;2023-04-02T16:24:10;4.03;;;0.63;;
24585;SDS011;12743;52.262;6.172;2023-04-02T16:32:00;4.65;;;1.00;;
24585;SDS011;12743;52.262;6.172;2023-04-02T16:42:57;4.50;;;1.42;;
24585;SDS011;12743;52.262;6.172;2023-04-02T16:48:25;3.03;;;0.70;;
24585;SDS011;12743;52.262;6.172;2023-04-02T16:51:10;2.90;;;0.50;;
24585;SDS011;12743;52.262;6.172;2023-04-02T16:59:51;4.05;;;0.80;;
24585;SDS011;12743;52.262;6.172;2023-04-02T17:05:32;2.93;;;1.00;;
24585;SDS011;12743;52.262;6.172;2023-04-02T17:08:21;3.55;;;1.00;;
24585;SDS011;12743;52.262;6.172;2023-04-02T17:10:50;3.22;;;1.20;;
24585;SDS011;12743;52.262;6.172;2023-04-02T17:13:41;3.53;;;1.00;;
24585;SDS011;12743;52.262;6.172;2023-04-02T17:18:43;4.10;;;0.80;;
24585;SDS011;12743;52.262;6.172;2023-04-02T17:21:23;3.20;;;0.60;;
24585;SDS011;12743;52.262;6.172;2023-04-02T17:23:55;4.00;;;0.90;;
24585;SDS011;12743;52.262;6.172;2023-04-02T17:26:28;5.18;;;0.77;;
24585;SDS011;12743;52.262;6.172;2023-04-02T17:28:59;6.13;;;1.33;;
24585;SDS011;12743;52.262;6.172;2023-04-02T17:31:31;5.27;;;1.07;;
24585;SDS011;12743;52.262;6.172;2023-04-02T17:34:05;6.25;;;2.05;;
24585;SDS011;12743;52.262;6.172;2023-04-02T17:36:46;5.03;;;1.60;;
24585;SDS011;12743;52.262;6.172;2023-04-02T17:39:35;5.18;;;1.35;;
24585;SDS011;12743;52.262;6.172;2023-04-02T17:42:22;3.03;;;0.77;;
24585;SDS011;12743;52.262;6.172;2023-04-02T17:45:00;5.83;;;0.90;;
24585;SDS011;12743;52.262;6.172;2023-04-02T17:47:43;4.68;;;1.05;;
24585;SDS011;12743;52.262;6.172;2023-04-02T17:55:38;9.57;;;3.22;;
24585;SDS011;12743;52.262;6.172;2023-04-02T17:58:22;4.67;;;0.83;;
24585;SDS011;12743;52.262;6.172;2023-04-02T18:01:02;3.88;;;0.77;;
24585;SDS011;12743;52.262;6.172;2023-04-02T18:03:47;3.03;;;0.65;;
24585;SDS011;12743;52.262;6.172;2023-04-02T18:06:27;4.07;;;1.05;;
24585;SDS011;12743;52.262;6.172;2023-04-02T18:23:01;3.28;;;0.80;;
24585;SDS011;12743;52.262;6.172;2023-04-02T18:25:57;5.10;;;1.20;;
24585;SDS011;12743;52.262;6.172;2023-04-02T18:34:20;3.67;;;0.60;;
24585;SDS011;12743;52.262;6.172;2023-04-02T18:37:03;6.28;;;1.05;;
24585;SDS011;12743;52.262;6.172;2023-04-02T18:45:26;4.70;;;0.70;;
24585;SDS011;12743;52.262;6.172;2023-04-02T18:50:50;4.20;;;1.00;;
24585;SDS011;12743;52.262;6.172;2023-04-02T18:53:23;5.73;;;1.70;;
24585;SDS011;12743;52.262;6.172;2023-04-02T18:55:55;4.00;;;1.10;;
24585;SDS011;12743;52.262;6.172;2023-04-02T18:58:37;4.00;;;1.00;;
24585;SDS011;12743;52.262;6.172;2023-04-02T19:01:12;5.05;;;1.00;;
24585;SDS011;12743;52.262;6.172;2023-04-02T19:07:14;5.17;;;1.20;;
24585;SDS011;12743;52.262;6.172;2023-04-02T19:09:37;4.80;;;0.95;;
24585;SDS011;12743;52.262;6.172;2023-04-02T19:12:11;6.20;;;1.00;;
24585;SDS011;12743;52.262;6.172;2023-04-02T19:14:41;5.40;;;1.45;;
24585;SDS011;12743;52.262;6.172;2023-04-02T19:17:26;4.00;;;0.70;;
24585;SDS011;12743;52.262;6.172;2023-04-02T19:25:28;2.17;;;0.60;;
24585;SDS011;12743;52.262;6.172;2023-04-02T19:33:42;4.00;;;0.90;;
24585;SDS011;12743;52.262;6.172;2023-04-02T19:36:33;3.58;;;0.85;;
24585;SDS011;12743;52.262;6.172;2023-04-02T19:44:44;3.80;;;0.60;;
24585;SDS011;12743;52.262;6.172;2023-04-02T19:47:13;3.77;;;1.00;;
24585;SDS011;12743;52.262;6.172;2023-04-02T19:49:42;4.28;;;0.80;;
24585;SDS011;12743;52.262;6.172;2023-04-02T19:52:09;4.85;;;0.88;;
24585;SDS011;12743;52.262;6.172;2023-04-02T19:54:35;2.67;;;0.60;;
24585;SDS011;12743;52.262;6.172;2023-04-02T19:57:03;10.55;;;1.98;;
24585;SDS011;12743;52.262;6.172;2023-04-02T19:59:31;5.27;;;1.20;;
24585;SDS011;12743;52.262;6.172;2023-04-02T20:01:57;3.17;;;0.90;;
24585;SDS011;12743;52.262;6.172;2023-04-02T20:04:24;3.28;;;1.08;;
24585;SDS011;12743;52.262;6.172;2023-04-02T20:06:51;7.13;;;2.22;;
24585;SDS011;12743;52.262;6.172;2023-04-02T20:09:17;4.82;;;1.25;;
24585;SDS011;12743;52.262;6.172;2023-04-02T20:11:44;3.93;;;1.00;;
24585;SDS011;12743;52.262;6.172;2023-04-02T20:14:10;3.85;;;0.77;;
24585;SDS011;12743;52.262;6.172;2023-04-02T20:16:37;2.65;;;0.45;;